sensor_id;sensor_type;location;lat;lon;timestamp;P1;durP1;ratioP1;P2;durP2;ratioP2
14394;SDS011;7282;49.204;10.652;2022-11-15T00:02:08;7.53;;;6.17;;
14394;SDS011;7282;49.204;10.652;2022-11-15T00:04:35;6.70;;;6.10;;
14394;SDS011;7282;49.204;10.652;2022-11-15T00:07:02;7.63;;;6.67;;
14394;SDS011;7282;49.204;10.652;2022-11-15T00:09:28;7.17;;;6.43;;
14394;SDS011;7282;49.204;10.652;2022-11-15T00:11:55;6.60;;;5.83;;
14394;SDS011;7282;49.204;10.652;2022-11-15T00:14:22;7.00;;;6.40;;
14394;SDS011;7282;49.204;10.652;2022-11-15T00:16:48;7.57;;;6.40;;
14394;SDS011;7282;49.204;10.652;2022-11-15T00:19:15;6.73;;;6.03;;
14394;SDS011;7282;49.204;10.652;2022-11-15T00:21:42;7.50;;;6.70;;
14394;SDS011;7282;49.204;10.652;2022-11-15T00:24:09;8.00;;;6.63;;
14394;SDS011;7282;49.204;10.652;2022-11-15T00:26:35;8.13;;;7.10;;
14394;SDS011;7282;49.204;10.652;2022-11-15T00:29:02;8.67;;;6.73;;
14394;SDS011;7282;49.204;10.652;2022-11-15T00:31:29;9.37;;;6.77;;
14394;SDS011;7282;49.204;10.652;2022-11-15T00:33:55;7.83;;;7.03;;
14394;SDS011;7282;49.204;10.652;2022-11-15T00:36:22;8.23;;;7.10;;
14394;SDS011;7282;49.204;10.652;2022-11-15T00:38:49;8.03;;;7.23;;
14394;SDS011;7282;49.204;10.652;2022-11-15T00:41:15;9.83;;;7.37;;
14394;SDS011;7282;49.204;10.652;2022-11-15T00:43:42;8.43;;;7.53;;
14394;SDS011;7282;49.204;10.652;2022-11-15T00:46:09;8.97;;;7.67;;
14394;SDS011;7282;49.204;10.652;2022-11-15T00:48:36;7.93;;;7.13;;
14394;SDS011;7282;49.204;10.652;2022-11-15T00:51:03;8.73;;;7.83;;
14394;SDS011;7282;49.204;10.652;2022-11-15T00:53:29;8.93;;;7.60;;
14394;SDS011;7282;49.204;10.652;2022-11-15T00:55:56;8.40;;;7.50;;
14394;SDS011;7282;49.204;10.652;2022-11-15T00:58:23;9.60;;;8.33;;
14394;SDS011;7282;49.204;10.652;2022-11-15T01:00:50;9.03;;;8.13;;
14394;SDS011;7282;49.204;10.652;2022-11-15T01:03:16;9.60;;;8.57;;
14394;SDS011;7282;49.204;10.652;2022-11-15T01:05:43;9.87;;;8.83;;
14394;SDS011;7282;49.204;10.652;2022-11-15T01:08:13;9.87;;;8.63;;
14394;SDS011;7282;49.204;10.652;2022-11-15T01:10:40;9.33;;;8.43;;
14394;SDS011;7282;49.204;10.652;2022-11-15T01:13:07;10.40;;;8.77;;
14394;SDS011;7282;49.204;10.652;2022-11-15T01:15:34;9.47;;;8.57;;
14394;SDS011;7282;49.204;10.652;2022-11-15T01:18:01;10.43;;;8.93;;
14394;SDS011;7282;49.204;10.652;2022-11-15T01:20:27;9.03;;;8.23;;
14394;SDS011;7282;49.204;10.652;2022-11-15T01:22:54;10.13;;;9.00;;
14394;SDS011;7282;49.204;10.652;2022-11-15T01:25:21;9.67;;;7.90;;
14394;SDS011;7282;49.204;10.652;2022-11-15T01:27:47;11.10;;;8.63;;
14394;SDS011;7282;49.204;10.652;2022-11-15T01:30:14;10.47;;;9.37;;
14394;SDS011;7282;49.204;10.652;2022-11-15T01:32:41;9.13;;;8.23;;
14394;SDS011;7282;49.204;10.652;2022-11-15T01:35:07;10.77;;;8.70;;
14394;SDS011;7282;49.204;10.652;2022-11-15T01:37:34;11.13;;;9.73;;
14394;SDS011;7282;49.204;10.652;2022-11-15T01:40:01;9.20;;;8.30;;
14394;SDS011;7282;49.204;10.652;2022-11-15T01:42:28;11.53;;;8.83;;
14394;SDS011;7282;49.204;10.652;2022-11-15T01:44:54;11.97;;;9.20;;
14394;SDS011;7282;49.204;10.652;2022-11-15T01:47:23;10.40;;;8.70;;
14394;SDS011;7282;49.204;10.652;2022-11-15T01:49:55;13.57;;;9.70;;
14394;SDS011;7282;49.204;10.652;2022-11-15T01:52:22;10.60;;;9.50;;
14394;SDS011;7282;49.204;10.652;2022-11-15T01:54:53;11.20;;;10.00;;
14394;SDS011;7282;49.204;10.652;2022-11-15T01:57:19;10.43;;;9.20;;
14394;SDS011;7282;49.204;10.652;2022-11-15T01:59:46;10.77;;;9.63;;
14394;SDS011;7282;49.204;10.652;2022-11-15T02:02:13;10.97;;;9.80;;
14394;SDS011;7282;49.204;10.652;2022-11-15T02:04:41;12.07;;;9.80;;
14394;SDS011;7282;49.204;10.652;2022-11-15T02:07:08;11.23;;;9.27;;
14394;SDS011;7282;49.204;10.652;2022-11-15T02:09:36;10.33;;;8.70;;
14394;SDS011;7282;49.204;10.652;2022-11-15T02:12:08;10.17;;;9.13;;
14394;SDS011;7282;49.204;10.652;2022-11-15T02:14:32;9.60;;;8.70;;
14394;SDS011;7282;49.204;10.652;2022-11-15T02:17:02;10.03;;;9.03;;
14394;SDS011;7282;49.204;10.652;2022-11-15T02:22:21;12.30;;;9.80;;
14394;SDS011;7282;49.204;10.652;2022-11-15T02:30:19;10.90;;;8.80;;
14394;SDS011;7282;49.204;10.652;2022-11-15T02:32:47;10.90;;;9.80;;
14394;SDS011;7282;49.204;10.652;2022-11-15T02:38:17;10.73;;;9.63;;
14394;SDS011;7282;49.204;10.652;2022-11-15T02:40:28;10.40;;;9.40;;
14394;SDS011;7282;49.204;10.652;2022-11-15T02:43:00;11.60;;;9.80;;
14394;SDS011;7282;49.204;10.652;2022-11-15T02:45:46;9.97;;;8.97;;
14394;SDS011;7282;49.204;10.652;2022-11-15T02:48:13;11.27;;;9.87;;
14394;SDS011;7282;49.204;10.652;2022-11-15T02:50:41;11.30;;;10.20;;
14394;SDS011;7282;49.204;10.652;2022-11-15T02:53:09;10.67;;;9.57;;
14394;SDS011;7282;49.204;10.652;2022-11-15T02:55:36;10.73;;;9.63;;
14394;SDS011;7282;49.204;10.652;2022-11-15T03:01:00;10.73;;;9.37;;
14394;SDS011;7282;49.204;10.652;2022-11-15T03:03:34;10.63;;;9.53;;
14394;SDS011;7282;49.204;10.652;2022-11-15T03:08:40;10.47;;;8.90;;
14394;SDS011;7282;49.204;10.652;2022-11-15T03:11:14;11.43;;;9.67;;
14394;SDS011;7282;49.204;10.652;2022-11-15T03:16:25;9.47;;;8.37;;
14394;SDS011;7282;49.204;10.652;2022-11-15T03:18:52;9.70;;;8.70;;
14394;SDS011;7282;49.204;10.652;2022-11-15T03:21:19;9.50;;;8.57;;
14394;SDS011;7282;49.204;10.652;2022-11-15T03:23:47;10.67;;;9.57;;
14394;SDS011;7282;49.204;10.652;2022-11-15T03:26:15;9.70;;;8.63;;
14394;SDS011;7282;49.204;10.652;2022-11-15T03:28:47;9.93;;;8.93;;
14394;SDS011;7282;49.204;10.652;2022-11-15T03:31:14;9.73;;;8.53;;
14394;SDS011;7282;49.204;10.652;2022-11-15T03:34:00;9.93;;;8.80;;
14394;SDS011;7282;49.204;10.652;2022-11-15T03:36:28;10.00;;;8.93;;
14394;SDS011;7282;49.204;10.652;2022-11-15T03:38:58;10.27;;;9.10;;
14394;SDS011;7282;49.204;10.652;2022-11-15T03:41:29;8.90;;;8.00;;
14394;SDS011;7282;49.204;10.652;2022-11-15T03:43:59;9.70;;;8.70;;
14394;SDS011;7282;49.204;10.652;2022-11-15T03:46:27;10.20;;;9.10;;
14394;SDS011;7282;49.204;10.652;2022-11-15T03:48:56;10.30;;;9.30;;
14394;SDS011;7282;49.204;10.652;2022-11-15T03:51:22;11.27;;;9.60;;
14394;SDS011;7282;49.204;10.652;2022-11-15T03:53:49;10.37;;;9.27;;
14394;SDS011;7282;49.204;10.652;2022-11-15T03:56:16;11.50;;;9.50;;
14394;SDS011;7282;49.204;10.652;2022-11-15T03:58:43;11.43;;;9.33;;
14394;SDS011;7282;49.204;10.652;2022-11-15T04:01:09;10.00;;;9.00;;
14394;SDS011;7282;49.204;10.652;2022-11-15T04:03:36;10.30;;;8.80;;
14394;SDS011;7282;49.204;10.652;2022-11-15T04:06:03;10.40;;;9.37;;
14394;SDS011;7282;49.204;10.652;2022-11-15T04:08:30;12.80;;;9.97;;
14394;SDS011;7282;49.204;10.652;2022-11-15T04:10:56;14.03;;;10.30;;
14394;SDS011;7282;49.204;10.652;2022-11-15T04:13:23;10.67;;;9.60;;
14394;SDS011;7282;49.204;10.652;2022-11-15T04:15:50;10.97;;;9.80;;
14394;SDS011;7282;49.204;10.652;2022-11-15T04:18:17;12.23;;;9.60;;
14394;SDS011;7282;49.204;10.652;2022-11-15T04:20:44;10.30;;;9.30;;
14394;SDS011;7282;49.204;10.652;2022-11-15T04:23:29;11.30;;;9.93;;
14394;SDS011;7282;49.204;10.652;2022-11-15T04:26:18;10.07;;;9.03;;
14394;SDS011;7282;49.204;10.652;2022-11-15T04:28:41;10.03;;;9.00;;
14394;SDS011;7282;49.204;10.652;2022-11-15T04:31:27;10.27;;;9.03;;
14394;SDS011;7282;49.204;10.652;2022-11-15T04:33:54;9.77;;;8.73;;
14394;SDS011;7282;49.204;10.652;2022-11-15T04:36:21;10.17;;;9.13;;
14394;SDS011;7282;49.204;10.652;2022-11-15T04:39:06;9.93;;;8.93;;
14394;SDS011;7282;49.204;10.652;2022-11-15T04:41:33;9.87;;;8.80;;
14394;SDS011;7282;49.204;10.652;2022-11-15T04:43:59;9.33;;;8.43;;
14394;SDS011;7282;49.204;10.652;2022-11-15T04:46:26;10.27;;;9.27;;
14394;SDS011;7282;49.204;10.652;2022-11-15T04:48:53;9.60;;;8.70;;
14394;SDS011;7282;49.204;10.652;2022-11-15T04:51:20;9.67;;;8.67;;
14394;SDS011;7282;49.204;10.652;2022-11-15T04:53:47;10.03;;;8.23;;
14394;SDS011;7282;49.204;10.652;2022-11-15T04:56:14;9.67;;;8.67;;
14394;SDS011;7282;49.204;10.652;2022-11-15T04:58:40;10.23;;;8.83;;
14394;SDS011;7282;49.204;10.652;2022-11-15T05:01:08;10.43;;;9.30;;
14394;SDS011;7282;49.204;10.652;2022-11-15T05:03:35;9.27;;;8.37;;
14394;SDS011;7282;49.204;10.652;2022-11-15T05:06:20;9.50;;;8.10;;
14394;SDS011;7282;49.204;10.652;2022-11-15T05:08:46;8.97;;;8.03;;
14394;SDS011;7282;49.204;10.652;2022-11-15T05:11:13;8.00;;;7.23;;
14394;SDS011;7282;49.204;10.652;2022-11-15T05:13:40;9.50;;;8.50;;
14394;SDS011;7282;49.204;10.652;2022-11-15T05:16:06;8.80;;;8.00;;
14394;SDS011;7282;49.204;10.652;2022-11-15T05:18:33;10.50;;;9.40;;
14394;SDS011;7282;49.204;10.652;2022-11-15T05:21:03;10.43;;;9.17;;
14394;SDS011;7282;49.204;10.652;2022-11-15T05:23:30;12.50;;;10.17;;
14394;SDS011;7282;49.204;10.652;2022-11-15T05:26:00;11.73;;;10.43;;
14394;SDS011;7282;49.204;10.652;2022-11-15T05:28:27;10.93;;;9.83;;
14394;SDS011;7282;49.204;10.652;2022-11-15T05:31:00;11.43;;;10.10;;
14394;SDS011;7282;49.204;10.652;2022-11-15T05:33:23;10.30;;;9.30;;
14394;SDS011;7282;49.204;10.652;2022-11-15T05:35:50;12.37;;;10.90;;
14394;SDS011;7282;49.204;10.652;2022-11-15T05:38:18;10.80;;;9.70;;
14394;SDS011;7282;49.204;10.652;2022-11-15T05:40:45;10.03;;;9.03;;
14394;SDS011;7282;49.204;10.652;2022-11-15T05:43:12;10.43;;;9.07;;
14394;SDS011;7282;49.204;10.652;2022-11-15T05:45:38;10.87;;;9.43;;
14394;SDS011;7282;49.204;10.652;2022-11-15T05:48:05;10.30;;;9.30;;
14394;SDS011;7282;49.204;10.652;2022-11-15T05:50:33;10.57;;;9.50;;
14394;SDS011;7282;49.204;10.652;2022-11-15T05:53:00;10.27;;;9.27;;
14394;SDS011;7282;49.204;10.652;2022-11-15T05:55:28;11.83;;;9.70;;
14394;SDS011;7282;49.204;10.652;2022-11-15T05:57:54;10.40;;;9.33;;
14394;SDS011;7282;49.204;10.652;2022-11-15T06:00:21;10.07;;;8.93;;
14394;SDS011;7282;49.204;10.652;2022-11-15T06:02:48;9.73;;;8.73;;
14394;SDS011;7282;49.204;10.652;2022-11-15T06:05:14;10.17;;;9.07;;
14394;SDS011;7282;49.204;10.652;2022-11-15T06:07:41;10.40;;;9.13;;
14394;SDS011;7282;49.204;10.652;2022-11-15T06:10:08;10.80;;;8.83;;
14394;SDS011;7282;49.204;10.652;2022-11-15T06:12:35;10.17;;;8.83;;
14394;SDS011;7282;49.204;10.652;2022-11-15T06:15:02;11.53;;;10.33;;
14394;SDS011;7282;49.204;10.652;2022-11-15T06:17:28;10.80;;;9.57;;
14394;SDS011;7282;49.204;10.652;2022-11-15T06:19:55;11.53;;;9.10;;
14394;SDS011;7282;49.204;10.652;2022-11-15T06:22:22;10.47;;;9.13;;
14394;SDS011;7282;49.204;10.652;2022-11-15T06:24:49;9.93;;;8.93;;
14394;SDS011;7282;49.204;10.652;2022-11-15T06:27:15;10.60;;;9.50;;
14394;SDS011;7282;49.204;10.652;2022-11-15T06:29:42;11.20;;;10.00;;
14394;SDS011;7282;49.204;10.652;2022-11-15T06:32:09;10.33;;;9.23;;
14394;SDS011;7282;49.204;10.652;2022-11-15T06:34:35;11.40;;;9.97;;
14394;SDS011;7282;49.204;10.652;2022-11-15T06:37:02;11.97;;;9.10;;
14394;SDS011;7282;49.204;10.652;2022-11-15T06:39:29;10.43;;;9.10;;
14394;SDS011;7282;49.204;10.652;2022-11-15T06:41:55;10.83;;;9.70;;
14394;SDS011;7282;49.204;10.652;2022-11-15T06:44:22;11.13;;;9.93;;
14394;SDS011;7282;49.204;10.652;2022-11-15T06:46:49;12.70;;;9.20;;
14394;SDS011;7282;49.204;10.652;2022-11-15T06:49:15;10.13;;;9.13;;
14394;SDS011;7282;49.204;10.652;2022-11-15T06:51:43;11.70;;;10.03;;
14394;SDS011;7282;49.204;10.652;2022-11-15T06:54:09;9.83;;;8.83;;
14394;SDS011;7282;49.204;10.652;2022-11-15T06:56:36;11.80;;;9.17;;
14394;SDS011;7282;49.204;10.652;2022-11-15T06:59:03;10.43;;;9.10;;
14394;SDS011;7282;49.204;10.652;2022-11-15T07:01:29;11.37;;;9.77;;
14394;SDS011;7282;49.204;10.652;2022-11-15T07:03:56;9.77;;;8.77;;
14394;SDS011;7282;49.204;10.652;2022-11-15T07:06:23;9.63;;;8.63;;
14394;SDS011;7282;49.204;10.652;2022-11-15T07:08:49;10.23;;;8.97;;
14394;SDS011;7282;49.204;10.652;2022-11-15T07:11:16;11.17;;;10.10;;
14394;SDS011;7282;49.204;10.652;2022-11-15T07:13:43;10.43;;;9.40;;
14394;SDS011;7282;49.204;10.652;2022-11-15T07:16:10;11.40;;;9.13;;
14394;SDS011;7282;49.204;10.652;2022-11-15T07:18:37;10.23;;;9.30;;
14394;SDS011;7282;49.204;10.652;2022-11-15T07:21:05;12.67;;;10.57;;
14394;SDS011;7282;49.204;10.652;2022-11-15T07:23:32;11.87;;;10.67;;
14394;SDS011;7282;49.204;10.652;2022-11-15T07:25:59;10.97;;;9.83;;
14394;SDS011;7282;49.204;10.652;2022-11-15T07:28:26;10.80;;;9.70;;
14394;SDS011;7282;49.204;10.652;2022-11-15T07:30:53;11.30;;;10.10;;
14394;SDS011;7282;49.204;10.652;2022-11-15T07:33:20;16.23;;;10.80;;
14394;SDS011;7282;49.204;10.652;2022-11-15T07:35:47;12.67;;;10.60;;
14394;SDS011;7282;49.204;10.652;2022-11-15T07:38:17;11.77;;;10.10;;
14394;SDS011;7282;49.204;10.652;2022-11-15T07:40:46;12.23;;;10.77;;
14394;SDS011;7282;49.204;10.652;2022-11-15T07:43:13;10.83;;;9.73;;
14394;SDS011;7282;49.204;10.652;2022-11-15T07:45:41;10.77;;;9.60;;
14394;SDS011;7282;49.204;10.652;2022-11-15T07:48:08;11.37;;;10.27;;
14394;SDS011;7282;49.204;10.652;2022-11-15T07:50:34;10.57;;;9.30;;
14394;SDS011;7282;49.204;10.652;2022-11-15T07:53:01;10.60;;;9.57;;
14394;SDS011;7282;49.204;10.652;2022-11-15T07:55:28;10.27;;;9.27;;
14394;SDS011;7282;49.204;10.652;2022-11-15T07:58:06;10.73;;;9.63;;
14394;SDS011;7282;49.204;10.652;2022-11-15T08:00:30;10.47;;;9.43;;
14394;SDS011;7282;49.204;10.652;2022-11-15T08:03:03;9.93;;;8.90;;
14394;SDS011;7282;49.204;10.652;2022-11-15T08:05:30;10.67;;;9.57;;
14394;SDS011;7282;49.204;10.652;2022-11-15T08:07:57;11.10;;;9.80;;
14394;SDS011;7282;49.204;10.652;2022-11-15T08:10:24;10.80;;;9.13;;
14394;SDS011;7282;49.204;10.652;2022-11-15T08:13:01;10.03;;;8.80;;
14394;SDS011;7282;49.204;10.652;2022-11-15T08:15:28;10.00;;;9.00;;
14394;SDS011;7282;49.204;10.652;2022-11-15T08:18:01;9.80;;;8.80;;
14394;SDS011;7282;49.204;10.652;2022-11-15T08:20:24;10.00;;;9.10;;
14394;SDS011;7282;49.204;10.652;2022-11-15T08:22:52;12.57;;;9.00;;
14394;SDS011;7282;49.204;10.652;2022-11-15T08:25:18;10.07;;;8.57;;
14394;SDS011;7282;49.204;10.652;2022-11-15T08:27:45;8.83;;;7.77;;
14394;SDS011;7282;49.204;10.652;2022-11-15T08:30:12;8.73;;;7.83;;
14394;SDS011;7282;49.204;10.652;2022-11-15T08:32:39;9.00;;;8.10;;
14394;SDS011;7282;49.204;10.652;2022-11-15T08:35:06;9.17;;;8.27;;
14394;SDS011;7282;49.204;10.652;2022-11-15T08:37:35;10.03;;;7.90;;
14394;SDS011;7282;49.204;10.652;2022-11-15T08:40:02;9.20;;;8.30;;
14394;SDS011;7282;49.204;10.652;2022-11-15T08:42:29;8.73;;;7.83;;
14394;SDS011;7282;49.204;10.652;2022-11-15T08:44:56;8.87;;;8.00;;
14394;SDS011;7282;49.204;10.652;2022-11-15T08:47:23;8.77;;;7.87;;
14394;SDS011;7282;49.204;10.652;2022-11-15T08:49:50;9.50;;;8.60;;
14394;SDS011;7282;49.204;10.652;2022-11-15T08:52:16;8.50;;;7.70;;
14394;SDS011;7282;49.204;10.652;2022-11-15T08:54:43;8.63;;;7.80;;
14394;SDS011;7282;49.204;10.652;2022-11-15T08:57:10;8.10;;;7.30;;
14394;SDS011;7282;49.204;10.652;2022-11-15T08:59:36;9.17;;;8.27;;
14394;SDS011;7282;49.204;10.652;2022-11-15T09:02:03;9.17;;;8.27;;
14394;SDS011;7282;49.204;10.652;2022-11-15T09:04:30;9.30;;;8.23;;
14394;SDS011;7282;49.204;10.652;2022-11-15T09:06:57;8.87;;;7.97;;
14394;SDS011;7282;49.204;10.652;2022-11-15T09:09:24;8.93;;;7.97;;
14394;SDS011;7282;49.204;10.652;2022-11-15T09:11:51;9.17;;;7.87;;
14394;SDS011;7282;49.204;10.652;2022-11-15T09:14:17;9.93;;;8.13;;
14394;SDS011;7282;49.204;10.652;2022-11-15T09:16:44;9.47;;;8.57;;
14394;SDS011;7282;49.204;10.652;2022-11-15T09:19:11;8.57;;;7.67;;
14394;SDS011;7282;49.204;10.652;2022-11-15T09:21:37;9.20;;;7.90;;
14394;SDS011;7282;49.204;10.652;2022-11-15T09:24:04;7.87;;;7.07;;
14394;SDS011;7282;49.204;10.652;2022-11-15T09:26:31;8.53;;;7.70;;
14394;SDS011;7282;49.204;10.652;2022-11-15T09:28:58;8.53;;;7.73;;
14394;SDS011;7282;49.204;10.652;2022-11-15T09:31:24;8.80;;;7.07;;
14394;SDS011;7282;49.204;10.652;2022-11-15T09:33:51;8.10;;;7.13;;
14394;SDS011;7282;49.204;10.652;2022-11-15T09:36:18;13.00;;;7.97;;
14394;SDS011;7282;49.204;10.652;2022-11-15T09:38:45;8.53;;;7.73;;
14394;SDS011;7282;49.204;10.652;2022-11-15T09:46:33;8.30;;;7.43;;
14394;SDS011;7282;49.204;10.652;2022-11-15T09:49:04;7.43;;;6.73;;
14394;SDS011;7282;49.204;10.652;2022-11-15T09:51:29;8.03;;;7.23;;
14394;SDS011;7282;49.204;10.652;2022-11-15T09:56:42;7.90;;;7.20;;
14394;SDS011;7282;49.204;10.652;2022-11-15T10:04:36;8.20;;;6.50;;
14394;SDS011;7282;49.204;10.652;2022-11-15T10:07:12;6.23;;;5.47;;
14394;SDS011;7282;49.204;10.652;2022-11-15T10:09:39;6.60;;;5.90;;
14394;SDS011;7282;49.204;10.652;2022-11-15T10:12:06;6.70;;;5.93;;
14394;SDS011;7282;49.204;10.652;2022-11-15T10:14:33;6.87;;;6.20;;
14394;SDS011;7282;49.204;10.652;2022-11-15T10:19:39;6.20;;;5.60;;
14394;SDS011;7282;49.204;10.652;2022-11-15T10:22:18;6.90;;;6.20;;
14394;SDS011;7282;49.204;10.652;2022-11-15T10:24:45;6.87;;;6.27;;
14394;SDS011;7282;49.204;10.652;2022-11-15T10:27:12;7.03;;;6.30;;
14394;SDS011;7282;49.204;10.652;2022-11-15T10:29:43;7.00;;;6.30;;
14394;SDS011;7282;49.204;10.652;2022-11-15T10:32:11;7.00;;;6.30;;
14394;SDS011;7282;49.204;10.652;2022-11-15T10:34:38;6.77;;;6.03;;
14394;SDS011;7282;49.204;10.652;2022-11-15T10:37:04;9.87;;;6.67;;
14394;SDS011;7282;49.204;10.652;2022-11-15T10:39:31;6.87;;;6.17;;
14394;SDS011;7282;49.204;10.652;2022-11-15T10:42:25;6.87;;;6.07;;
14394;SDS011;7282;49.204;10.652;2022-11-15T10:44:44;6.10;;;5.43;;
14394;SDS011;7282;49.204;10.652;2022-11-15T10:47:24;6.17;;;5.57;;
14394;SDS011;7282;49.204;10.652;2022-11-15T10:49:58;11.00;;;9.70;;
14394;SDS011;7282;49.204;10.652;2022-11-15T10:52:25;8.73;;;7.70;;
14394;SDS011;7282;49.204;10.652;2022-11-15T10:55:38;8.27;;;6.93;;
14394;SDS011;7282;49.204;10.652;2022-11-15T10:57:28;7.00;;;6.20;;
14394;SDS011;7282;49.204;10.652;2022-11-15T11:00:00;7.30;;;6.60;;
14394;SDS011;7282;49.204;10.652;2022-11-15T11:02:28;6.47;;;5.87;;
14394;SDS011;7282;49.204;10.652;2022-11-15T11:04:55;6.60;;;6.00;;
14394;SDS011;7282;49.204;10.652;2022-11-15T11:07:23;6.07;;;5.47;;
14394;SDS011;7282;49.204;10.652;2022-11-15T11:10:02;6.60;;;5.90;;
14394;SDS011;7282;49.204;10.652;2022-11-15T11:12:28;6.67;;;6.00;;
14394;SDS011;7282;49.204;10.652;2022-11-15T11:14:58;6.57;;;6.00;;
14394;SDS011;7282;49.204;10.652;2022-11-15T11:22:34;6.73;;;5.90;;
14394;SDS011;7282;49.204;10.652;2022-11-15T11:38:10;5.87;;;5.17;;
14394;SDS011;7282;49.204;10.652;2022-11-15T11:48:12;4.57;;;4.13;;
14394;SDS011;7282;49.204;10.652;2022-11-15T11:50:31;4.30;;;3.90;;
14394;SDS011;7282;49.204;10.652;2022-11-15T11:53:00;4.87;;;4.47;;
14394;SDS011;7282;49.204;10.652;2022-11-15T11:55:34;5.43;;;4.10;;
14394;SDS011;7282;49.204;10.652;2022-11-15T12:00:41;4.97;;;4.07;;
14394;SDS011;7282;49.204;10.652;2022-11-15T12:03:11;4.60;;;3.13;;
14394;SDS011;7282;49.204;10.652;2022-11-15T12:05:48;2.73;;;2.53;;
14394;SDS011;7282;49.204;10.652;2022-11-15T12:08:22;3.43;;;2.83;;
14394;SDS011;7282;49.204;10.652;2022-11-15T12:10:45;4.60;;;2.73;;
14394;SDS011;7282;49.204;10.652;2022-11-15T12:13:21;3.20;;;2.53;;
14394;SDS011;7282;49.204;10.652;2022-11-15T12:18:28;3.23;;;2.93;;
14394;SDS011;7282;49.204;10.652;2022-11-15T12:20:56;2.60;;;2.37;;
14394;SDS011;7282;49.204;10.652;2022-11-15T12:23:27;2.70;;;2.50;;
14394;SDS011;7282;49.204;10.652;2022-11-15T12:25:56;2.90;;;2.50;;
14394;SDS011;7282;49.204;10.652;2022-11-15T12:28:43;3.27;;;2.60;;
14394;SDS011;7282;49.204;10.652;2022-11-15T12:31:11;5.70;;;3.00;;
14394;SDS011;7282;49.204;10.652;2022-11-15T12:33:42;2.97;;;2.60;;
14394;SDS011;7282;49.204;10.652;2022-11-15T12:36:10;2.37;;;2.17;;
14394;SDS011;7282;49.204;10.652;2022-11-15T12:43:53;2.93;;;2.63;;
14394;SDS011;7282;49.204;10.652;2022-11-15T12:48:58;2.97;;;2.53;;
14394;SDS011;7282;49.204;10.652;2022-11-15T13:02:18;3.10;;;2.80;;
14394;SDS011;7282;49.204;10.652;2022-11-15T13:04:45;3.40;;;3.10;;
14394;SDS011;7282;49.204;10.652;2022-11-15T13:17:51;2.93;;;2.63;;
14394;SDS011;7282;49.204;10.652;2022-11-15T13:30:52;3.50;;;3.20;;
14394;SDS011;7282;49.204;10.652;2022-11-15T13:33:23;3.20;;;2.90;;
14394;SDS011;7282;49.204;10.652;2022-11-15T13:35:51;3.50;;;3.20;;
14394;SDS011;7282;49.204;10.652;2022-11-15T13:40:53;3.90;;;3.60;;
14394;SDS011;7282;49.204;10.652;2022-11-15T13:43:34;3.80;;;3.40;;
14394;SDS011;7282;49.204;10.652;2022-11-15T13:46:05;3.70;;;3.40;;
14394;SDS011;7282;49.204;10.652;2022-11-15T13:48:32;3.60;;;3.30;;
14394;SDS011;7282;49.204;10.652;2022-11-15T13:51:03;4.20;;;3.20;;
14394;SDS011;7282;49.204;10.652;2022-11-15T13:53:32;4.20;;;3.40;;
14394;SDS011;7282;49.204;10.652;2022-11-15T13:55:59;4.57;;;3.87;;
14394;SDS011;7282;49.204;10.652;2022-11-15T13:58:26;3.63;;;3.33;;
14394;SDS011;7282;49.204;10.652;2022-11-15T14:01:03;4.77;;;3.50;;
14394;SDS011;7282;49.204;10.652;2022-11-15T14:03:28;3.53;;;3.23;;
14394;SDS011;7282;49.204;10.652;2022-11-15T14:08:29;3.00;;;2.80;;
14394;SDS011;7282;49.204;10.652;2022-11-15T14:11:15;2.93;;;2.63;;
14394;SDS011;7282;49.204;10.652;2022-11-15T14:13:58;3.90;;;3.60;;
14394;SDS011;7282;49.204;10.652;2022-11-15T14:16:15;3.67;;;3.37;;
14394;SDS011;7282;49.204;10.652;2022-11-15T14:18:43;3.43;;;3.03;;
14394;SDS011;7282;49.204;10.652;2022-11-15T14:21:10;3.60;;;3.30;;
14394;SDS011;7282;49.204;10.652;2022-11-15T14:23:37;3.60;;;3.30;;
14394;SDS011;7282;49.204;10.652;2022-11-15T14:26:04;3.83;;;3.43;;
14394;SDS011;7282;49.204;10.652;2022-11-15T14:28:32;3.70;;;3.40;;
14394;SDS011;7282;49.204;10.652;2022-11-15T14:31:00;4.07;;;3.73;;
14394;SDS011;7282;49.204;10.652;2022-11-15T14:33:34;4.13;;;3.73;;
14394;SDS011;7282;49.204;10.652;2022-11-15T14:36:10;3.43;;;3.20;;
14394;SDS011;7282;49.204;10.652;2022-11-15T14:38:32;4.83;;;4.20;;
14394;SDS011;7282;49.204;10.652;2022-11-15T14:41:00;5.03;;;4.20;;
14394;SDS011;7282;49.204;10.652;2022-11-15T14:43:27;4.53;;;4.13;;
14394;SDS011;7282;49.204;10.652;2022-11-15T14:45:53;4.60;;;4.20;;
14394;SDS011;7282;49.204;10.652;2022-11-15T14:48:20;4.50;;;4.00;;
14394;SDS011;7282;49.204;10.652;2022-11-15T14:50:48;4.37;;;3.97;;
14394;SDS011;7282;49.204;10.652;2022-11-15T14:53:15;11.70;;;7.30;;
14394;SDS011;7282;49.204;10.652;2022-11-15T14:55:42;8.30;;;6.23;;
14394;SDS011;7282;49.204;10.652;2022-11-15T14:58:09;5.87;;;5.37;;
14394;SDS011;7282;49.204;10.652;2022-11-15T15:00:36;6.00;;;5.40;;
14394;SDS011;7282;49.204;10.652;2022-11-15T15:03:04;4.90;;;4.40;;
14394;SDS011;7282;49.204;10.652;2022-11-15T15:05:33;7.40;;;5.20;;
14394;SDS011;7282;49.204;10.652;2022-11-15T15:07:59;5.03;;;4.53;;
14394;SDS011;7282;49.204;10.652;2022-11-15T15:10:31;4.60;;;4.20;;
14394;SDS011;7282;49.204;10.652;2022-11-15T15:12:55;4.90;;;4.50;;
14394;SDS011;7282;49.204;10.652;2022-11-15T15:15:23;5.73;;;4.40;;
14394;SDS011;7282;49.204;10.652;2022-11-15T15:17:50;4.83;;;4.33;;
14394;SDS011;7282;49.204;10.652;2022-11-15T15:20:17;4.90;;;4.33;;
14394;SDS011;7282;49.204;10.652;2022-11-15T15:22:43;4.60;;;4.20;;
14394;SDS011;7282;49.204;10.652;2022-11-15T15:25:21;5.13;;;4.63;;
14394;SDS011;7282;49.204;10.652;2022-11-15T15:27:39;4.63;;;4.23;;
14394;SDS011;7282;49.204;10.652;2022-11-15T15:30:06;5.47;;;4.97;;
14394;SDS011;7282;49.204;10.652;2022-11-15T15:32:32;6.70;;;5.27;;
14394;SDS011;7282;49.204;10.652;2022-11-15T15:34:59;8.77;;;5.63;;
14394;SDS011;7282;49.204;10.652;2022-11-15T15:37:26;6.57;;;4.93;;
14394;SDS011;7282;49.204;10.652;2022-11-15T15:39:53;5.43;;;4.80;;
14394;SDS011;7282;49.204;10.652;2022-11-15T15:42:20;6.23;;;4.87;;
14394;SDS011;7282;49.204;10.652;2022-11-15T15:44:48;4.90;;;4.40;;
14394;SDS011;7282;49.204;10.652;2022-11-15T15:47:16;6.03;;;4.40;;
14394;SDS011;7282;49.204;10.652;2022-11-15T15:49:43;5.07;;;4.47;;
14394;SDS011;7282;49.204;10.652;2022-11-15T15:52:09;5.47;;;4.73;;
14394;SDS011;7282;49.204;10.652;2022-11-15T15:54:37;4.63;;;4.23;;
14394;SDS011;7282;49.204;10.652;2022-11-15T15:57:06;6.07;;;4.30;;
14394;SDS011;7282;49.204;10.652;2022-11-15T15:59:33;4.47;;;4.07;;
14394;SDS011;7282;49.204;10.652;2022-11-15T16:01:59;4.00;;;3.67;;
14394;SDS011;7282;49.204;10.652;2022-11-15T16:04:26;4.87;;;4.37;;
14394;SDS011;7282;49.204;10.652;2022-11-15T16:07:00;5.13;;;4.63;;
14394;SDS011;7282;49.204;10.652;2022-11-15T16:09:28;4.90;;;4.50;;
14394;SDS011;7282;49.204;10.652;2022-11-15T16:12:13;4.30;;;3.90;;
14394;SDS011;7282;49.204;10.652;2022-11-15T16:14:40;4.17;;;3.77;;
14394;SDS011;7282;49.204;10.652;2022-11-15T16:17:08;4.23;;;3.90;;
14394;SDS011;7282;49.204;10.652;2022-11-15T16:19:35;4.33;;;3.97;;
14394;SDS011;7282;49.204;10.652;2022-11-15T16:22:02;4.43;;;4.00;;
14394;SDS011;7282;49.204;10.652;2022-11-15T16:24:28;4.90;;;4.30;;
14394;SDS011;7282;49.204;10.652;2022-11-15T16:26:55;4.60;;;4.20;;
14394;SDS011;7282;49.204;10.652;2022-11-15T16:29:24;4.73;;;4.00;;
14394;SDS011;7282;49.204;10.652;2022-11-15T16:31:50;5.30;;;4.10;;
14394;SDS011;7282;49.204;10.652;2022-11-15T16:34:17;4.67;;;4.13;;
14394;SDS011;7282;49.204;10.652;2022-11-15T16:36:44;4.53;;;3.70;;
14394;SDS011;7282;49.204;10.652;2022-11-15T16:39:11;5.20;;;4.23;;
14394;SDS011;7282;49.204;10.652;2022-11-15T16:41:40;7.90;;;4.73;;